Time;durP1;ratioP1;P1;durP2;ratioP2;P2;SDS_P1;SDS_P2;PMS_P1;PMS_P2;Temp;Humidity;BMP_temperature;BMP_pressure;BME280_temperature;BME280_humidity;BME280_pressure;Samples;Min_cycle;Max_cycle;Signal;HPM_P1;HPM_P2
2023/09/02 00:01:26;;;;;;;1.20;1.10;;;21.10;93.00;;;;;;5034454;28;20199;-69
2023/09/02 00:03:52;;;;;;;1.40;1.30;;;21.10;92.90;;;;;;5049958;28;20190;-69
2023/09/02 00:06:17;;;;;;;1.30;1.20;;;21.10;92.90;;;;;;5042083;28;20226;-69
2023/09/02 00:08:43;;;;;;;1.30;1.20;;;21.10;92.90;;;;;;5040103;28;20191;-69
2023/09/02 00:11:09;;;;;;;1.20;1.10;;;21.10;93.30;;;;;;5052059;28;20186;-69
2023/09/02 00:13:35;;;;;;;1.35;1.02;;;21.10;92.90;;;;;;5026416;28;20642;-69
2023/09/02 00:16:01;;;;;;;1.00;1.00;;;21.10;92.90;;;;;;5043347;28;20186;-69
2023/09/02 00:18:27;;;;;;;1.20;1.10;;;21.10;92.90;;;;;;5025754;28;20238;-69
2023/09/02 00:20:52;;;;;;;1.35;1.25;;;21.10;92.90;;;;;;5039033;28;20200;-69
2023/09/02 00:23:18;;;;;;;1.20;1.10;;;21.00;92.80;;;;;;5047351;28;20188;-70
2023/09/02 00:25:44;;;;;;;1.42;1.33;;;21.10;92.90;;;;;;5041366;28;20196;-69
2023/09/02 00:28:10;;;;;;;1.45;1.35;;;21.10;92.80;;;;;;5046283;28;20203;-70
2023/09/02 00:30:35;;;;;;;1.40;1.30;;;21.10;92.80;;;;;;5029809;28;20218;-69
2023/09/02 00:33:01;;;;;;;1.02;1.02;;;21.10;92.80;;;;;;5031453;28;20200;-69
2023/09/02 00:35:27;;;;;;;1.30;1.20;;;21.10;92.80;;;;;;5045038;28;20224;-69
2023/09/02 00:37:53;;;;;;;1.45;1.35;;;21.10;92.80;;;;;;5046034;28;20233;-69
2023/09/02 00:40:22;;;;;;;1.40;1.30;;;21.10;92.80;;;;;;5037752;28;20187;-69
2023/09/02 00:42:50;;;;;;;1.42;1.33;;;21.00;92.80;;;;;;5046160;28;20273;-70
2023/09/02 00:45:21;;;;;;;1.35;1.25;;;21.00;92.80;;;;;;5044813;28;20190;-69
2023/09/02 00:47:50;;;;;;;1.63;1.17;;;21.10;92.90;;;;;;5017819;28;20242;-69
2023/09/02 00:50:16;;;;;;;1.35;1.25;;;21.00;92.80;;;;;;5034586;28;20188;-69
2023/09/02 00:52:41;;;;;;;1.08;0.90;;;21.00;92.70;;;;;;5031730;28;20595;-69
2023/09/02 00:55:08;;;;;;;1.38;1.25;;;21.00;92.70;;;;;;5046840;28;20182;-69
2023/09/02 00:57:35;;;;;;;1.30;1.20;;;21.00;92.70;;;;;;5029289;28;20207;-70
2023/09/02 01:00:05;;;;;;;1.20;1.10;;;21.10;92.80;;;;;;5037802;28;20313;-69
2023/09/02 01:02:31;;;;;;;1.13;1.00;;;21.00;92.70;;;;;;5029498;28;20190;-69
2023/09/02 01:04:58;;;;;;;0.98;0.98;;;21.00;92.70;;;;;;5012882;28;20661;-69
2023/09/02 01:07:25;;;;;;;1.40;1.30;;;21.00;92.70;;;;;;5054073;28;20281;-69
2023/09/02 01:09:51;;;;;;;1.30;1.20;;;21.00;92.60;;;;;;5054761;28;20340;-71
2023/09/02 01:12:18;;;;;;;1.50;1.40;;;21.10;92.70;;;;;;5053647;28;20208;-69
2023/09/02 01:14:44;;;;;;;1.23;1.13;;;21.00;92.70;;;;;;5036192;28;20186;-69
2023/09/02 01:17:10;;;;;;;1.30;1.20;;;21.00;92.70;;;;;;5046211;28;20316;-69
2023/09/02 01:19:39;;;;;;;1.30;1.25;;;21.00;92.70;;;;;;5036817;28;20285;-69
2023/09/02 01:22:39;;;;;;;1.35;1.25;;;21.00;92.70;;;;;;5038830;28;20194;-69
2023/09/02 01:25:21;;;;;;;1.70;1.20;;;21.00;92.60;;;;;;5037399;28;20733;-70
2023/09/02 01:27:59;;;;;;;1.38;1.13;;;21.00;92.60;;;;;;5045610;28;20693;-68
2023/09/02 01:30:31;;;;;;;1.00;1.00;;;21.00;92.60;;;;;;5046988;28;20195;-69
2023/09/02 01:32:59;;;;;;;1.20;1.10;;;21.00;92.60;;;;;;5035287;28;20223;-69
2023/09/02 01:35:29;;;;;;;1.40;1.30;;;21.00;92.60;;;;;;5046083;28;20799;-69
2023/09/02 01:37:58;;;;;;;1.27;1.17;;;21.00;92.60;;;;;;5054486;28;20256;-70
2023/09/02 01:40:27;;;;;;;1.08;1.05;;;21.00;92.60;;;;;;5045414;28;20206;-69
2023/09/02 01:42:56;;;;;;;1.27;1.17;;;21.00;92.60;;;;;;5036539;28;20214;-70
2023/09/02 01:45:29;;;;;;;1.48;1.00;;;21.00;92.60;;;;;;5027133;28;20192;-69
2023/09/02 01:47:56;;;;;;;1.45;0.98;;;21.00;92.60;;;;;;5048213;28;20275;-69
2023/09/02 01:50:28;;;;;;;1.40;1.30;;;21.00;92.60;;;;;;5047150;28;20194;-69
2023/09/02 01:52:56;;;;;;;1.25;1.17;;;21.00;92.60;;;;;;5042983;28;20622;-69
2023/09/02 01:55:23;;;;;;;1.10;1.10;;;21.00;92.60;;;;;;5030212;28;20175;-69
2023/09/02 01:57:50;;;;;;;1.00;1.00;;;21.00;92.60;;;;;;5052979;28;20693;-69
2023/09/02 02:00:17;;;;;;;1.13;1.10;;;21.00;92.60;;;;;;5028141;28;20551;-69
2023/09/02 02:02:47;;;;;;;1.10;1.00;;;21.00;92.60;;;;;;5044293;28;20214;-69
2023/09/02 02:05:16;;;;;;;1.08;1.08;;;21.00;92.60;;;;;;5044505;28;20183;-69
2023/09/02 02:07:57;;;;;;;1.30;1.20;;;21.00;92.60;;;;;;5044490;28;20214;-69
2023/09/02 02:10:25;;;;;;;1.13;1.02;;;21.00;92.60;;;;;;5044575;28;20335;-68
2023/09/02 02:12:52;;;;;;;1.35;1.25;;;21.00;92.60;;;;;;5053563;28;20206;-70
2023/09/02 02:15:17;;;;;;;1.33;1.23;;;21.00;92.50;;;;;;5048587;28;20187;-70
2023/09/02 02:17:43;;;;;;;0.98;0.98;;;21.00;92.50;;;;;;5050453;28;20741;-69
2023/09/02 02:20:09;;;;;;;1.27;1.10;;;21.00;92.50;;;;;;5044294;28;20191;-69
2023/09/02 02:22:35;;;;;;;1.08;1.08;;;21.00;92.50;;;;;;5027663;28;20187;-69
2023/09/02 02:25:01;;;;;;;1.60;1.27;;;21.00;92.50;;;;;;5052000;28;20201;-69
2023/09/02 02:27:27;;;;;;;1.33;1.23;;;21.00;92.40;;;;;;5045201;28;20581;-69
2023/09/02 02:29:53;;;;;;;1.50;1.05;;;21.00;92.80;;;;;;5035694;28;20182;-69
2023/09/02 02:32:19;;;;;;;1.10;1.02;;;21.00;92.50;;;;;;5035422;28;20210;-69
2023/09/02 02:34:45;;;;;;;1.25;1.10;;;21.00;92.40;;;;;;5053148;28;20220;-70
2023/09/02 02:37:10;;;;;;;1.45;1.20;;;21.00;92.50;;;;;;5043861;28;20678;-69
2023/09/02 02:39:36;;;;;;;1.27;1.17;;;20.90;92.40;;;;;;5035960;28;20191;-70
2023/09/02 02:42:02;;;;;;;0.90;0.80;;;20.90;92.40;;;;;;5015839;28;20709;-69
2023/09/02 02:44:28;;;;;;;1.35;1.10;;;20.90;92.40;;;;;;5025153;28;20188;-69
2023/09/02 02:46:54;;;;;;;1.17;1.10;;;20.90;92.40;;;;;;5028035;28;20260;-69
2023/09/02 02:49:19;;;;;;;1.30;1.20;;;21.00;92.50;;;;;;5025623;28;20194;-69
2023/09/02 02:51:45;;;;;;;0.80;0.80;;;21.00;92.40;;;;;;5031842;28;20215;-70
2023/09/02 02:54:12;;;;;;;1.08;1.00;;;20.90;92.40;;;;;;5035554;28;20192;-69
2023/09/02 02:56:37;;;;;;;1.77;1.30;;;21.00;92.40;;;;;;5043779;28;20214;-69
2023/09/02 02:59:04;;;;;;;1.27;1.17;;;20.90;92.40;;;;;;5035701;28;20179;-69
2023/09/02 03:01:31;;;;;;;1.10;1.08;;;21.00;92.40;;;;;;5035256;28;20190;-69
2023/09/02 03:03:59;;;;;;;1.00;1.00;;;20.90;92.30;;;;;;5043947;28;20199;-69
2023/09/02 03:06:25;;;;;;;1.00;1.00;;;20.90;92.30;;;;;;5035533;28;20241;-69
2023/09/02 03:08:51;;;;;;;1.20;1.10;;;20.90;92.40;;;;;;5050440;28;20653;-68
2023/09/02 03:11:17;;;;;;;1.23;1.15;;;20.90;92.30;;;;;;5044449;28;20190;-69
2023/09/02 03:13:43;;;;;;;1.40;1.30;;;20.90;92.30;;;;;;5034961;28;20182;-69
2023/09/02 03:16:16;;;;;;;1.20;1.10;;;20.90;92.30;;;;;;5027623;28;20202;-70
2023/09/02 03:18:42;;;;;;;0.80;0.80;;;20.90;92.30;;;;;;5051717;28;20193;-69
2023/09/02 03:21:09;;;;;;;1.00;1.00;;;20.90;92.30;;;;;;5047966;28;20195;-69
2023/09/02 03:23:36;;;;;;;0.75;0.75;;;20.90;92.30;;;;;;5036375;28;20180;-69
2023/09/02 03:26:08;;;;;;;1.25;1.15;;;20.90;92.30;;;;;;5046891;28;20179;-71
2023/09/02 03:28:35;;;;;;;1.25;1.15;;;20.90;92.30;;;;;;5046216;28;20216;-69
2023/09/02 03:31:08;;;;;;;1.10;0.98;;;20.90;92.30;;;;;;5050954;28;20246;-70
2023/09/02 03:33:36;;;;;;;1.17;1.08;;;20.90;92.30;;;;;;5051446;28;20189;-69
2023/09/02 03:36:03;;;;;;;1.08;0.98;;;20.90;92.30;;;;;;5050744;28;20688;-69
2023/09/02 03:38:30;;;;;;;1.33;1.10;;;20.90;92.20;;;;;;5034718;28;20271;-69
2023/09/02 03:40:58;;;;;;;1.15;1.08;;;20.90;92.30;;;;;;5026905;28;20191;-69
2023/09/02 03:43:24;;;;;;;1.10;1.10;;;20.90;92.20;;;;;;5034991;28;20239;-69
2023/09/02 03:45:51;;;;;;;1.20;1.20;;;20.90;92.20;;;;;;5050335;28;20174;-70
2023/09/02 03:48:19;;;;;;;1.33;1.20;;;20.90;92.20;;;;;;5044204;28;20206;-69
2023/09/02 03:51:12;;;;;;;1.05;1.05;;;20.90;92.10;;;;;;5043557;28;20217;-69
2023/09/02 03:53:39;;;;;;;0.90;0.90;;;20.90;92.20;;;;;;5032492;28;20198;-70
2023/09/02 03:56:05;;;;;;;1.17;1.08;;;20.90;92.20;;;;;;5042915;28;20186;-70
2023/09/02 03:58:34;;;;;;;1.20;1.10;;;20.90;92.20;;;;;;5038700;28;20182;-70
2023/09/02 04:01:00;;;;;;;1.15;1.05;;;20.90;92.20;;;;;;5056241;28;20194;-69
2023/09/02 04:03:29;;;;;;;1.00;1.00;;;20.90;92.20;;;;;;5038400;28;20178;-69
2023/09/02 04:05:55;;;;;;;0.90;0.90;;;20.90;92.20;;;;;;5045970;28;20209;-69
2023/09/02 04:08:23;;;;;;;1.20;1.10;;;20.90;92.10;;;;;;5055268;28;20190;-69
2023/09/02 04:10:55;;;;;;;0.98;0.98;;;20.80;92.10;;;;;;5055263;28;20186;-69
2023/09/02 04:13:26;;;;;;;1.00;1.00;;;20.90;92.20;;;;;;5046536;28;20210;-69
2023/09/02 04:16:03;;;;;;;1.10;0.95;;;20.80;92.00;;;;;;5038014;28;20186;-69
2023/09/02 04:18:31;;;;;;;1.00;0.95;;;20.90;92.10;;;;;;5055073;28;20178;-69
2023/09/02 04:21:03;;;;;;;1.15;0.90;;;20.80;92.00;;;;;;5038194;28;20190;-69
2023/09/02 04:23:31;;;;;;;1.08;1.05;;;20.80;92.00;;;;;;5049129;28;20195;-69
2023/09/02 04:26:02;;;;;;;0.93;0.88;;;20.80;92.00;;;;;;5028882;28;20206;-69
2023/09/02 04:28:28;;;;;;;0.80;0.80;;;20.90;92.10;;;;;;5038193;28;20217;-69
2023/09/02 04:30:56;;;;;;;1.17;1.13;;;20.90;92.00;;;;;;5054555;28;20183;-70
2023/09/02 04:33:24;;;;;;;1.25;1.15;;;20.80;92.00;;;;;;5038038;28;20212;-69
2023/09/02 04:35:51;;;;;;;1.17;1.08;;;20.80;92.00;;;;;;5037931;28;20178;-70
2023/09/02 04:38:17;;;;;;;1.10;1.10;;;20.80;92.00;;;;;;5054439;28;20183;-69
2023/09/02 04:40:46;;;;;;;1.10;1.00;;;20.90;92.00;;;;;;5054419;28;20189;-69
2023/09/02 04:43:14;;;;;;;1.33;1.23;;;20.80;92.00;;;;;;5054439;28;20190;-70
2023/09/02 04:45:41;;;;;;;1.63;1.20;;;20.80;92.00;;;;;;5029622;28;20183;-69
2023/09/02 04:48:11;;;;;;;0.95;0.95;;;20.80;92.00;;;;;;5029455;28;20206;-69
2023/09/02 04:50:38;;;;;;;1.13;1.13;;;20.80;92.00;;;;;;5030041;28;20204;-70
2023/09/02 04:53:07;;;;;;;1.30;1.20;;;20.80;92.00;;;;;;5053642;28;20594;-69
2023/09/02 04:55:39;;;;;;;1.13;1.02;;;20.80;92.00;;;;;;5054416;28;20183;-70
2023/09/02 04:58:07;;;;;;;1.02;1.02;;;20.80;91.90;;;;;;5037353;28;20213;-69
2023/09/02 05:00:34;;;;;;;1.38;1.27;;;20.80;92.00;;;;;;5037695;28;20186;-70
2023/09/02 05:03:01;;;;;;;0.95;0.95;;;20.80;91.90;;;;;;5027633;28;20202;-69
2023/09/02 05:05:30;;;;;;;1.20;1.10;;;20.80;91.90;;;;;;5025612;28;20219;-69
2023/09/02 05:07:56;;;;;;;1.27;1.17;;;20.80;91.90;;;;;;5067417;28;20210;-69
2023/09/02 05:10:24;;;;;;;1.10;1.00;;;20.80;91.90;;;;;;5037169;28;20265;-69
2023/09/02 05:12:50;;;;;;;1.10;0.90;;;20.80;91.90;;;;;;5053710;28;20218;-69
2023/09/02 05:15:17;;;;;;;2.65;1.10;;;20.80;91.90;;;;;;5046987;28;20189;-70
2023/09/02 05:17:44;;;;;;;0.98;0.93;;;20.80;91.90;;;;;;5053711;28;20312;-69
2023/09/02 05:20:10;;;;;;;1.20;1.15;;;20.90;91.90;;;;;;5054023;28;20705;-69
2023/09/02 05:22:36;;;;;;;1.00;0.90;;;20.80;91.90;;;;;;5037038;28;20662;-69
2023/09/02 05:25:03;;;;;;;1.00;1.00;;;20.80;91.90;;;;;;5034086;28;20266;-69
2023/09/02 05:27:30;;;;;;;1.52;1.10;;;20.80;91.90;;;;;;5031335;28;20203;-69
2023/09/02 05:29:56;;;;;;;1.20;1.10;;;20.80;91.90;;;;;;5051021;28;20193;-69
2023/09/02 05:32:22;;;;;;;1.00;0.93;;;20.80;91.90;;;;;;5036598;28;20301;-69
2023/09/02 05:34:48;;;;;;;1.00;1.00;;;20.80;91.90;;;;;;5045654;28;20183;-69
2023/09/02 05:37:14;;;;;;;1.20;1.10;;;20.80;91.90;;;;;;5054103;28;20206;-69
2023/09/02 05:39:40;;;;;;;0.93;0.93;;;20.80;91.90;;;;;;5045066;28;20182;-69
2023/09/02 05:42:06;;;;;;;1.65;1.10;;;20.80;91.90;;;;;;5028211;28;20191;-69
2023/09/02 05:44:35;;;;;;;1.15;1.05;;;20.80;91.90;;;;;;5044978;28;20205;-69
2023/09/02 05:47:01;;;;;;;1.27;1.10;;;20.80;91.90;;;;;;5026448;28;20208;-69
2023/09/02 05:49:27;;;;;;;0.88;0.88;;;20.80;91.90;;;;;;5049015;28;20195;-68
2023/09/02 05:51:53;;;;;;;1.00;1.00;;;20.80;91.90;;;;;;5032937;28;20305;-69
2023/09/02 05:54:19;;;;;;;1.00;0.90;;;20.80;91.90;;;;;;5053069;28;20190;-69
2023/09/02 05:56:47;;;;;;;1.15;1.10;;;20.80;91.90;;;;;;5052720;28;20209;-70
2023/09/02 05:59:13;;;;;;;1.10;1.00;;;20.80;91.90;;;;;;5054138;28;20248;-69
2023/09/02 06:01:39;;;;;;;0.90;0.90;;;20.80;91.90;;;;;;5036162;28;20188;-69
2023/09/02 06:04:05;;;;;;;0.90;0.90;;;20.80;91.90;;;;;;5044758;28;20191;-69
2023/09/02 06:06:30;;;;;;;0.90;0.90;;;20.80;91.90;;;;;;5052566;28;20574;-69
2023/09/02 06:08:57;;;;;;;0.80;0.80;;;20.80;91.90;;;;;;5044450;28;20193;-69
2023/09/02 06:11:22;;;;;;;1.13;1.08;;;20.80;91.90;;;;;;5036020;28;20193;-71
2023/09/02 06:13:48;;;;;;;1.20;1.10;;;20.80;91.90;;;;;;5029402;28;20184;-69
2023/09/02 06:16:14;;;;;;;0.90;0.90;;;20.80;91.90;;;;;;5043584;28;20210;-69
2023/09/02 06:18:40;;;;;;;1.00;1.00;;;20.80;91.90;;;;;;5052254;28;20178;-69
2023/09/02 06:21:13;;;;;;;1.40;1.10;;;20.80;91.90;;;;;;5052706;28;20202;-69
2023/09/02 06:23:44;;;;;;;1.15;1.08;;;20.80;91.90;;;;;;5052534;28;20183;-70
2023/09/02 06:26:11;;;;;;;0.90;0.90;;;20.80;91.90;;;;;;5043907;28;20749;-69
2023/09/02 06:28:38;;;;;;;1.08;0.98;;;20.80;92.00;;;;;;5053334;28;20178;-70
2023/09/02 06:31:08;;;;;;;0.80;0.80;;;20.80;92.00;;;;;;5051148;28;20229;-69
2023/09/02 06:33:35;;;;;;;1.20;1.10;;;20.80;92.00;;;;;;5046102;28;20217;-69
2023/09/02 06:36:12;;;;;;;1.30;1.20;;;20.80;92.00;;;;;;5043989;28;20219;-69
2023/09/02 06:38:38;;;;;;;1.33;0.88;;;20.80;92.30;;;;;;5043938;28;20669;-69
2023/09/02 06:41:15;;;;;;;1.05;0.95;;;20.80;92.00;;;;;;5053232;28;20222;-69
2023/09/02 06:43:42;;;;;;;1.10;1.00;;;20.80;92.00;;;;;;5045716;28;20183;-69
2023/09/02 06:46:16;;;;;;;1.02;1.02;;;20.80;92.00;;;;;;5041903;28;20229;-69
2023/09/02 06:48:44;;;;;;;0.70;0.70;;;20.80;92.00;;;;;;5037975;28;20190;-69
2023/09/02 06:51:09;;;;;;;1.00;0.90;;;20.80;92.00;;;;;;5042187;28;20190;-69
2023/09/02 06:53:35;;;;;;;1.00;1.00;;;20.80;92.10;;;;;;5029346;28;20293;-70
2023/09/02 06:56:05;;;;;;;1.27;1.17;;;20.80;92.10;;;;;;5043278;28;20211;-69
2023/09/02 06:58:30;;;;;;;1.15;1.05;;;20.80;92.20;;;;;;5043967;28;20186;-69
2023/09/02 07:00:56;;;;;;;1.00;1.00;;;20.80;92.10;;;;;;5042056;28;20195;-69
2023/09/02 07:03:22;;;;;;;1.00;1.00;;;20.80;92.20;;;;;;5027548;28;20170;-69
2023/09/02 07:05:47;;;;;;;1.40;1.30;;;20.80;92.20;;;;;;5051875;28;20207;-69
2023/09/02 07:08:13;;;;;;;0.90;0.90;;;20.80;92.30;;;;;;5045090;28;20214;-71
2023/09/02 07:10:39;;;;;;;1.10;1.00;;;20.80;92.30;;;;;;5019820;28;20187;-69
2023/09/02 07:13:05;;;;;;;0.90;0.90;;;20.80;92.30;;;;;;5052225;28;20210;-70
2023/09/02 07:15:30;;;;;;;1.05;1.05;;;20.80;92.40;;;;;;5052722;28;20704;-69
2023/09/02 07:17:56;;;;;;;1.40;1.20;;;20.80;92.30;;;;;;5054095;28;20718;-69
2023/09/02 07:20:22;;;;;;;1.30;1.20;;;20.80;92.50;;;;;;5051946;28;20197;-69
2023/09/02 07:22:47;;;;;;;1.52;1.13;;;20.80;92.40;;;;;;5034980;28;20254;-69
2023/09/02 07:25:13;;;;;;;1.00;1.00;;;20.80;92.50;;;;;;5051548;28;20186;-70
2023/09/02 07:27:39;;;;;;;1.30;1.20;;;20.80;92.50;;;;;;5051511;28;20210;-69
2023/09/02 07:30:05;;;;;;;1.38;1.27;;;20.80;92.60;;;;;;5051888;28;20186;-69
2023/09/02 07:32:31;;;;;;;1.63;1.25;;;20.80;92.50;;;;;;5034223;28;20293;-69
2023/09/02 07:34:57;;;;;;;2.60;0.98;;;20.80;92.50;;;;;;5052362;28;20171;-69
2023/09/02 07:37:22;;;;;;;1.52;1.15;;;20.80;92.60;;;;;;5034969;28;20206;-69
2023/09/02 07:39:48;;;;;;;1.25;1.00;;;20.80;92.60;;;;;;5035042;28;20194;-69
2023/09/02 07:42:14;;;;;;;1.17;1.02;;;20.80;92.70;;;;;;5052721;28;20185;-69
2023/09/02 07:44:40;;;;;;;1.20;1.10;;;20.80;92.70;;;;;;5051345;28;20196;-69
2023/09/02 07:47:05;;;;;;;1.10;1.00;;;20.80;92.80;;;;;;5051478;28;20216;-69
2023/09/02 07:49:31;;;;;;;1.00;1.00;;;20.80;92.80;;;;;;5034963;28;20218;-69
2023/09/02 07:51:57;;;;;;;1.13;1.02;;;20.80;92.90;;;;;;5034792;28;20217;-69
2023/09/02 07:54:23;;;;;;;1.75;1.10;;;20.80;93.00;;;;;;5051233;28;20185;-69
2023/09/02 07:56:48;;;;;;;1.17;1.10;;;20.80;93.00;;;;;;5034390;28;20701;-70
2023/09/02 07:59:14;;;;;;;1.15;1.10;;;20.80;93.00;;;;;;5051080;28;20654;-72
2023/09/02 08:01:40;;;;;;;1.25;1.15;;;20.80;93.00;;;;;;5051443;28;20182;-69
2023/09/02 08:04:06;;;;;;;1.30;1.17;;;20.80;93.00;;;;;;5052528;28;20213;-69
2023/09/02 08:06:31;;;;;;;1.77;1.13;;;20.90;93.00;;;;;;5051148;28;20210;-69
2023/09/02 08:08:57;;;;;;;1.23;0.90;;;20.90;93.10;;;;;;5052284;28;20253;-69
2023/09/02 08:11:23;;;;;;;1.77;1.30;;;20.90;93.00;;;;;;5034554;28;20213;-71
2023/09/02 08:13:48;;;;;;;1.23;1.13;;;21.00;92.90;;;;;;5034360;28;20178;-69
2023/09/02 08:16:14;;;;;;;1.40;1.23;;;21.00;92.90;;;;;;5052018;28;20206;-68
2023/09/02 08:18:40;;;;;;;0.95;0.95;;;21.00;92.80;;;;;;5034923;28;20174;-69
2023/09/02 08:21:09;;;;;;;1.83;1.20;;;21.00;92.90;;;;;;5050584;28;20692;-69
2023/09/02 08:23:36;;;;;;;1.20;1.10;;;21.00;92.90;;;;;;5052322;28;20178;-69
2023/09/02 08:26:15;;;;;;;1.40;1.30;;;21.10;92.90;;;;;;5014262;28;20199;-70
2023/09/02 08:28:42;;;;;;;1.20;1.10;;;21.00;92.80;;;;;;5030945;28;20190;-69
2023/09/02 08:31:11;;;;;;;1.25;1.15;;;21.10;92.80;;;;;;5032173;28;20183;-69
2023/09/02 08:33:38;;;;;;;1.42;1.30;;;21.10;93.00;;;;;;5014856;28;20215;-69
2023/09/02 08:36:03;;;;;;;0.90;0.90;;;21.10;92.90;;;;;;5030656;28;20180;-69
2023/09/02 08:38:29;;;;;;;1.90;1.23;;;21.10;92.90;;;;;;5014762;28;20241;-69
2023/09/02 08:40:59;;;;;;;1.20;1.10;;;21.10;92.90;;;;;;5024924;28;20251;-68
2023/09/02 08:43:27;;;;;;;1.25;1.05;;;21.10;93.00;;;;;;5034301;28;20197;-68
2023/09/02 08:45:54;;;;;;;1.45;1.15;;;21.10;92.90;;;;;;5037222;28;20257;-69
2023/09/02 08:48:24;;;;;;;1.88;1.10;;;21.10;93.10;;;;;;5054262;28;20248;-69
2023/09/02 08:50:52;;;;;;;1.30;1.10;;;21.10;93.20;;;;;;5046932;28;20225;-69
2023/09/02 08:53:20;;;;;;;1.20;1.00;;;21.10;93.10;;;;;;5053602;28;20203;-69
2023/09/02 08:55:49;;;;;;;1.17;1.08;;;21.10;93.10;;;;;;5047711;28;20274;-69
2023/09/02 08:58:16;;;;;;;1.20;1.10;;;21.10;93.00;;;;;;5045842;28;20240;-69
2023/09/02 09:00:42;;;;;;;0.90;0.90;;;21.10;93.00;;;;;;5054025;28;20228;-69
2023/09/02 09:03:13;;;;;;;1.20;1.10;;;21.10;93.10;;;;;;5037113;28;20179;-69
2023/09/02 09:05:42;;;;;;;1.00;1.00;;;21.10;93.00;;;;;;5049357;28;20191;-69
2023/09/02 09:08:10;;;;;;;2.33;0.80;;;21.10;93.10;;;;;;5033950;28;20210;-69
2023/09/02 09:10:38;;;;;;;1.27;1.02;;;21.10;93.10;;;;;;5045547;28;20190;-69
2023/09/02 09:13:08;;;;;;;1.20;1.10;;;21.10;93.10;;;;;;5053823;28;20264;-69
2023/09/02 09:15:36;;;;;;;1.08;0.82;;;21.20;93.10;;;;;;5037477;28;20186;-70
2023/09/02 09:18:03;;;;;;;1.23;0.98;;;21.10;93.10;;;;;;5046412;28;20203;-70
2023/09/02 09:20:31;;;;;;;1.08;1.05;;;21.20;93.20;;;;;;5050222;28;20195;-73
2023/09/02 09:22:57;;;;;;;1.10;1.00;;;21.20;93.20;;;;;;5048539;28;20587;-69
2023/09/02 09:25:22;;;;;;;1.42;1.05;;;21.20;93.20;;;;;;5045865;28;20220;-69
2023/09/02 09:27:49;;;;;;;0.80;0.80;;;21.10;93.10;;;;;;5046489;28;20205;-70
2023/09/02 09:30:30;;;;;;;1.23;1.10;;;21.20;93.20;;;;;;5038022;28;20289;-70
2023/09/02 09:33:05;;;;;;;1.02;0.93;;;21.20;93.20;;;;;;5053159;28;20206;-69
2023/09/02 09:35:32;;;;;;;0.90;0.90;;;21.20;93.20;;;;;;5053472;28;20210;-69
2023/09/02 09:37:59;;;;;;;1.00;1.00;;;21.20;93.20;;;;;;5046511;28;20202;-69
2023/09/02 09:40:30;;;;;;;1.27;1.17;;;21.20;93.20;;;;;;5052955;28;20241;-69
2023/09/02 09:42:57;;;;;;;1.20;1.10;;;21.20;93.20;;;;;;5046814;28;20215;-70
2023/09/02 09:45:23;;;;;;;1.10;1.10;;;21.20;93.20;;;;;;5051014;28;20208;-69
2023/09/02 09:47:49;;;;;;;0.98;0.90;;;21.20;93.20;;;;;;5052936;28;20289;-70
2023/09/02 09:50:16;;;;;;;1.13;1.10;;;21.20;93.20;;;;;;5045530;28;20187;-68
2023/09/02 09:52:59;;;;;;;1.30;1.20;;;21.20;93.20;;;;;;5053051;28;20229;-69
2023/09/02 09:55:25;;;;;;;1.08;0.98;;;21.20;93.30;;;;;;5051673;28;20187;-69
2023/09/02 09:57:55;;;;;;;1.10;1.00;;;21.20;93.60;;;;;;5042335;28;20194;-69
2023/09/02 10:00:21;;;;;;;0.93;0.93;;;21.20;93.50;;;;;;5051603;28;20200;-70
2023/09/02 10:02:58;;;;;;;1.80;1.20;;;21.20;93.50;;;;;;5045518;28;20195;-69
2023/09/02 10:05:30;;;;;;;1.00;1.00;;;21.20;93.40;;;;;;5052343;28;20201;-69
2023/09/02 10:08:05;;;;;;;1.00;1.00;;;21.20;93.50;;;;;;5053735;28;20639;-69
2023/09/02 10:10:36;;;;;;;1.23;1.13;;;21.20;93.40;;;;;;5045639;28;20193;-69
2023/09/02 10:13:04;;;;;;;0.88;0.88;;;21.20;93.50;;;;;;5052743;28;20202;-69
2023/09/02 10:15:31;;;;;;;1.13;1.10;;;21.20;93.60;;;;;;5037014;28;20195;-70
2023/09/02 10:18:04;;;;;;;1.17;1.08;;;21.20;93.60;;;;;;5035712;28;20206;-69
2023/09/02 10:20:35;;;;;;;1.30;1.20;;;21.20;93.50;;;;;;5050055;28;20205;-69
2023/09/02 10:23:07;;;;;;;1.35;1.05;;;21.20;93.50;;;;;;5047275;28;20253;-69
2023/09/02 10:26:02;;;;;;;1.50;1.40;;;21.20;93.50;;;;;;5044994;28;20217;-69
2023/09/02 10:28:38;;;;;;;1.40;1.30;;;21.20;93.60;;;;;;5032655;28;20194;-70
2023/09/02 10:31:38;;;;;;;1.25;1.17;;;21.20;93.70;;;;;;5025570;28;20187;-68
2023/09/02 10:34:21;;;;;;;1.45;1.15;;;21.20;93.70;;;;;;5016143;28;20194;-68
2023/09/02 10:36:57;;;;;;;1.20;1.10;;;21.20;93.60;;;;;;5033062;28;20288;-69
2023/09/02 10:40:01;;;;;;;1.15;1.10;;;21.20;93.60;;;;;;5051042;28;20217;-71
2023/09/02 10:42:28;;;;;;;1.35;1.25;;;21.20;93.60;;;;;;5052969;28;20205;-69
2023/09/02 10:44:54;;;;;;;1.27;1.17;;;21.30;93.70;;;;;;5043589;28;20669;-68
2023/09/02 10:47:20;;;;;;;1.10;1.00;;;21.20;93.70;;;;;;5043626;28;20266;-69
2023/09/02 10:49:47;;;;;;;1.02;0.90;;;21.30;93.70;;;;;;5047690;28;20236;-69
2023/09/02 10:52:15;;;;;;;1.00;1.00;;;21.30;93.70;;;;;;5041292;28;20333;-71
2023/09/02 10:55:10;;;;;;;1.48;1.38;;;21.30;93.70;;;;;;5035123;28;20194;-70
2023/09/02 10:57:57;;;;;;;1.30;1.20;;;21.30;93.70;;;;;;5034531;28;20202;-69
2023/09/02 11:00:25;;;;;;;1.20;1.10;;;21.30;93.60;;;;;;5029976;28;20190;-69
2023/09/02 11:02:58;;;;;;;1.20;1.10;;;21.30;93.70;;;;;;5038056;28;20258;-71
2023/09/02 11:05:28;;;;;;;1.45;1.10;;;21.30;93.60;;;;;;5048122;28;20222;-71
2023/09/02 11:07:54;;;;;;;1.30;1.20;;;21.30;93.70;;;;;;5037208;28;20198;-70
2023/09/02 11:10:21;;;;;;;1.40;1.30;;;21.30;93.70;;;;;;5042893;28;20186;-69
2023/09/02 11:13:06;;;;;;;1.02;1.00;;;21.30;93.70;;;;;;5043631;28;20210;-69
2023/09/02 11:15:34;;;;;;;1.48;1.25;;;21.30;93.70;;;;;;5052726;28;20189;-69
2023/09/02 11:18:39;;;;;;;1.45;1.27;;;21.30;93.80;;;;;;5051404;28;20251;-69
2023/09/02 11:21:05;;;;;;;2.40;1.23;;;21.30;93.80;;;;;;5013998;28;20195;-69
2023/09/02 11:23:33;;;;;;;0.88;0.88;;;21.30;93.80;;;;;;5035755;28;20200;-69
2023/09/02 11:26:07;;;;;;;1.48;1.20;;;21.30;93.70;;;;;;5043063;28;20174;-68
2023/09/02 11:28:33;;;;;;;1.10;1.00;;;21.30;93.90;;;;;;5044051;28;20213;-69
2023/09/02 11:31:14;;;;;;;1.20;1.08;;;21.30;93.80;;;;;;5044257;28;20260;-69
2023/09/02 11:33:46;;;;;;;1.08;0.90;;;21.30;93.90;;;;;;5051140;28;20225;-69
2023/09/02 11:36:20;;;;;;;1.63;1.27;;;21.30;93.90;;;;;;5050849;28;20213;-69
2023/09/02 11:38:46;;;;;;;1.05;1.05;;;21.30;93.90;;;;;;5026952;28;20181;-69
2023/09/02 11:41:22;;;;;;;1.10;1.10;;;21.30;93.80;;;;;;5044584;28;20206;-69
2023/09/02 11:43:48;;;;;;;1.10;1.00;;;21.30;93.70;;;;;;5047321;28;20264;-69
2023/09/02 11:46:14;;;;;;;1.33;1.23;;;21.30;93.80;;;;;;5046301;28;20210;-69
2023/09/02 11:48:40;;;;;;;1.17;1.13;;;21.30;93.80;;;;;;5025713;28;20222;-69
2023/09/02 11:51:12;;;;;;;1.23;1.13;;;21.30;93.70;;;;;;5034457;28;20182;-69
2023/09/02 11:53:38;;;;;;;1.13;1.02;;;21.30;93.70;;;;;;5042399;28;20210;-69
2023/09/02 11:56:09;;;;;;;0.85;0.85;;;21.40;93.70;;;;;;5042682;28;20202;-69
2023/09/02 11:58:35;;;;;;;1.00;1.00;;;21.40;93.70;;;;;;5042046;28;20183;-69
2023/09/02 12:01:01;;;;;;;0.95;0.80;;;21.40;93.60;;;;;;5044441;28;20278;-69
2023/09/02 12:03:28;;;;;;;1.10;1.10;;;21.40;93.60;;;;;;5042465;28;20191;-69
2023/09/02 12:06:00;;;;;;;0.95;0.95;;;21.30;93.60;;;;;;5050535;28;20190;-69
2023/09/02 12:08:29;;;;;;;1.08;0.98;;;21.40;93.60;;;;;;5034586;28;20197;-69
2023/09/02 12:10:54;;;;;;;1.58;1.20;;;21.40;93.60;;;;;;5042487;28;20191;-69
2023/09/02 12:13:21;;;;;;;0.98;0.98;;;21.40;93.60;;;;;;5026254;28;20209;-69
2023/09/02 12:15:51;;;;;;;1.05;1.00;;;21.40;93.70;;;;;;5033240;28;20189;-69
2023/09/02 12:18:19;;;;;;;1.23;1.20;;;21.30;93.70;;;;;;5052411;28;20222;-69
2023/09/02 12:20:45;;;;;;;1.30;1.20;;;21.40;93.70;;;;;;5047582;28;20194;-69
2023/09/02 12:23:12;;;;;;;1.20;1.10;;;21.40;93.60;;;;;;5047624;28;20187;-69
2023/09/02 12:25:40;;;;;;;1.20;1.10;;;21.40;93.60;;;;;;5038079;28;20199;-69
2023/09/02 12:28:14;;;;;;;1.33;1.20;;;21.40;93.60;;;;;;5046396;28;20202;-70
2023/09/02 12:30:46;;;;;;;1.00;0.90;;;21.40;93.60;;;;;;5045558;28;20191;-69
2023/09/02 12:33:15;;;;;;;0.98;0.90;;;21.40;93.50;;;;;;5025842;28;20226;-69
2023/09/02 12:35:49;;;;;;;1.00;1.00;;;21.40;93.50;;;;;;5042372;28;20176;-69
2023/09/02 12:38:15;;;;;;;0.93;0.90;;;21.30;93.50;;;;;;5047980;28;20206;-69
2023/09/02 12:40:56;;;;;;;1.17;1.02;;;21.40;93.60;;;;;;5051726;28;20277;-69
2023/09/02 12:43:27;;;;;;;1.20;1.10;;;21.40;93.50;;;;;;5046420;28;20195;-71
2023/09/02 12:45:54;;;;;;;1.00;1.00;;;21.30;93.40;;;;;;5046980;28;20189;-69
2023/09/02 12:48:20;;;;;;;1.13;1.05;;;21.40;93.60;;;;;;5054239;28;20187;-69
2023/09/02 12:50:46;;;;;;;1.17;1.10;;;21.40;93.50;;;;;;5037599;28;20214;-69
2023/09/02 12:53:13;;;;;;;1.00;1.00;;;21.40;93.60;;;;;;5045847;28;20203;-69
2023/09/02 12:55:43;;;;;;;1.27;1.20;;;21.40;93.50;;;;;;5045739;28;20183;-69